sensor_id;sensor_type;location;lat;lon;timestamp;pressure;altitude;pressure_sealevel;temperature;humidity
26192;BME280;13935;55.672;37.764;2023-05-07T04:35:44;101267.69;;;18.25;30.80
26192;BME280;13935;55.672;37.764;2023-05-07T04:36:46;101257.00;;;18.91;30.25
26192;BME280;13935;55.672;37.764;2023-05-07T04:37:49;101269.16;;;18.67;30.17
26192;BME280;13935;55.672;37.764;2023-05-07T04:38:53;101262.94;;;17.63;30.37
26192;BME280;13935;55.672;37.764;2023-05-07T04:39:55;101266.53;;;19.08;29.56
26192;BME280;13935;55.672;37.764;2023-05-07T04:41:03;101258.94;;;17.95;30.56
26192;BME280;13935;55.672;37.764;2023-05-07T04:42:09;101264.44;;;18.44;30.25
26192;BME280;13935;55.672;37.764;2023-05-07T04:43:12;101265.47;;;18.81;29.59
26192;BME280;13935;55.672;37.764;2023-05-07T04:44:20;101274.03;;;18.53;30.00
26192;BME280;13935;55.672;37.764;2023-05-07T04:45:22;101268.09;;;18.09;29.20
26192;BME280;13935;55.672;37.764;2023-05-07T04:46:30;101275.72;;;18.23;29.85
26192;BME280;13935;55.672;37.764;2023-05-07T04:47:34;101270.59;;;18.96;29.38
26192;BME280;13935;55.672;37.764;2023-05-07T04:48:38;101271.63;;;19.34;28.76
26192;BME280;13935;55.672;37.764;2023-05-07T04:49:41;101276.50;;;18.13;29.97
26192;BME280;13935;55.672;37.764;2023-05-07T04:50:49;101270.50;;;17.27;29.93
26192;BME280;13935;55.672;37.764;2023-05-07T04:52:00;101269.25;;;17.08;29.99
26192;BME280;13935;55.672;37.764;2023-05-07T04:53:03;101274.72;;;16.76;31.13
26192;BME280;13935;55.672;37.764;2023-05-07T04:54:05;101278.94;;;17.59;30.23
26192;BME280;13935;55.672;37.764;2023-05-07T04:55:08;101272.53;;;17.86;30.18
26192;BME280;13935;55.672;37.764;2023-05-07T04:56:17;101272.63;;;16.49;30.74
26192;BME280;13935;55.672;37.764;2023-05-07T04:57:21;101271.41;;;19.00;29.63
26192;BME280;13935;55.672;37.764;2023-05-07T04:58:24;101275.34;;;17.93;29.14
26192;BME280;13935;55.672;37.764;2023-05-07T04:59:28;101275.56;;;16.84;30.35
26192;BME280;13935;55.672;37.764;2023-05-07T05:00:30;101279.41;;;15.41;31.69
26192;BME280;13935;55.672;37.764;2023-05-07T05:17:01;101268.66;;;18.86;27.14
26192;BME280;13935;55.672;37.764;2023-05-07T05:18:05;101279.69;;;18.15;27.70
26192;BME280;13935;55.672;37.764;2023-05-07T05:24:31;101285.06;;;20.07;26.37
26192;BME280;13935;55.672;37.764;2023-05-07T05:25:36;101288.31;;;20.05;25.48
26192;BME280;13935;55.672;37.764;2023-05-07T05:27:14;101281.13;;;18.75;26.28
26192;BME280;13935;55.672;37.764;2023-05-07T05:28:16;101284.44;;;18.46;26.35
26192;BME280;13935;55.672;37.764;2023-05-07T05:29:18;101281.00;;;19.10;26.68
26192;BME280;13935;55.672;37.764;2023-05-07T05:30:21;101279.28;;;16.27;28.98
26192;BME280;13935;55.672;37.764;2023-05-07T05:31:29;101279.25;;;16.24;29.00
26192;BME280;13935;55.672;37.764;2023-05-07T05:32:33;101289.06;;;15.54;30.26
26192;BME280;13935;55.672;37.764;2023-05-07T05:33:36;101276.53;;;17.47;28.38
26192;BME280;13935;55.672;37.764;2023-05-07T05:34:40;101291.59;;;16.97;28.00
26192;BME280;13935;55.672;37.764;2023-05-07T05:35:42;101287.75;;;17.50;27.65
26192;BME280;13935;55.672;37.764;2023-05-07T05:37:15;101288.38;;;18.72;26.15
26192;BME280;13935;55.672;37.764;2023-05-07T05:38:18;101285.75;;;19.20;25.62
26192;BME280;13935;55.672;37.764;2023-05-07T05:39:21;101298.91;;;19.84;26.21
26192;BME280;13935;55.672;37.764;2023-05-07T05:40:25;101295.22;;;19.43;25.27
26192;BME280;13935;55.672;37.764;2023-05-07T05:41:29;101300.84;;;19.94;25.42
26192;BME280;13935;55.672;37.764;2023-05-07T05:42:32;101298.34;;;18.80;25.07
26192;BME280;13935;55.672;37.764;2023-05-07T05:43:34;101298.78;;;18.75;25.60
26192;BME280;13935;55.672;37.764;2023-05-07T05:44:36;101290.31;;;19.57;25.19
26192;BME280;13935;55.672;37.764;2023-05-07T05:45:42;101292.97;;;19.21;25.27
26192;BME280;13935;55.672;37.764;2023-05-07T05:46:49;101288.47;;;17.19;26.52
26192;BME280;13935;55.672;37.764;2023-05-07T05:47:58;101298.09;;;18.40;25.97
26192;BME280;13935;55.672;37.764;2023-05-07T05:49:24;101292.50;;;17.46;27.24
26192;BME280;13935;55.672;37.764;2023-05-07T05:50:27;101296.47;;;18.46;26.57
26192;BME280;13935;55.672;37.764;2023-05-07T05:51:55;101293.75;;;19.21;25.06
26192;BME280;13935;55.672;37.764;2023-05-07T05:53:03;101299.53;;;20.08;24.65
26192;BME280;13935;55.672;37.764;2023-05-07T05:54:12;101293.22;;;17.15;26.71
26192;BME280;13935;55.672;37.764;2023-05-07T05:55:15;101297.72;;;17.37;27.33
26192;BME280;13935;55.672;37.764;2023-05-07T05:56:19;101295.84;;;19.03;26.22
26192;BME280;13935;55.672;37.764;2023-05-07T05:57:25;101306.94;;;17.90;27.01
26192;BME280;13935;55.672;37.764;2023-05-07T05:58:30;101302.13;;;16.43;27.66
26192;BME280;13935;55.672;37.764;2023-05-07T05:59:37;101298.91;;;18.16;27.46
26192;BME280;13935;55.672;37.764;2023-05-07T06:00:40;101295.63;;;17.14;27.41
26192;BME280;13935;55.672;37.764;2023-05-07T06:02:11;101303.09;;;16.07;28.09
26192;BME280;13935;55.672;37.764;2023-05-07T06:03:18;101308.94;;;17.86;27.47
26192;BME280;13935;55.672;37.764;2023-05-07T06:04:52;101299.97;;;19.49;26.15
26192;BME280;13935;55.672;37.764;2023-05-07T06:05:57;101308.44;;;18.64;25.91
26192;BME280;13935;55.672;37.764;2023-05-07T06:07:04;101309.47;;;19.08;25.89
26192;BME280;13935;55.672;37.764;2023-05-07T06:08:06;101306.81;;;18.70;25.41
26192;BME280;13935;55.672;37.764;2023-05-07T06:09:09;101318.91;;;20.40;24.40
26192;BME280;13935;55.672;37.764;2023-05-07T06:10:16;101313.53;;;20.52;25.29
26192;BME280;13935;55.672;37.764;2023-05-07T06:11:18;101313.69;;;21.64;23.35
26192;BME280;13935;55.672;37.764;2023-05-07T06:12:21;101308.75;;;20.49;24.57
26192;BME280;13935;55.672;37.764;2023-05-07T06:13:24;101324.31;;;20.94;24.07
26192;BME280;13935;55.672;37.764;2023-05-07T06:14:27;101309.84;;;19.10;24.81
26192;BME280;13935;55.672;37.764;2023-05-07T06:15:30;101309.75;;;17.73;25.26
26192;BME280;13935;55.672;37.764;2023-05-07T06:16:42;101302.53;;;17.75;25.90
26192;BME280;13935;55.672;37.764;2023-05-07T06:17:47;101305.03;;;19.04;26.71
26192;BME280;13935;55.672;37.764;2023-05-07T06:18:50;101304.72;;;18.91;25.15
26192;BME280;13935;55.672;37.764;2023-05-07T06:19:53;101311.94;;;19.60;25.05
26192;BME280;13935;55.672;37.764;2023-05-07T06:20:59;101311.00;;;19.81;25.44
26192;BME280;13935;55.672;37.764;2023-05-07T06:22:07;101313.75;;;19.30;25.15
26192;BME280;13935;55.672;37.764;2023-05-07T06:23:09;101314.34;;;19.62;25.11
26192;BME280;13935;55.672;37.764;2023-05-07T06:24:20;101328.81;;;20.88;24.43
26192;BME280;13935;55.672;37.764;2023-05-07T06:25:27;101313.06;;;19.70;24.93
26192;BME280;13935;55.672;37.764;2023-05-07T06:26:37;101318.63;;;20.64;24.26
26192;BME280;13935;55.672;37.764;2023-05-07T06:27:39;101313.13;;;19.63;24.93
26192;BME280;13935;55.672;37.764;2023-05-07T06:28:48;101312.53;;;18.11;26.75
26192;BME280;13935;55.672;37.764;2023-05-07T06:30:01;101317.50;;;16.77;29.74
26192;BME280;13935;55.672;37.764;2023-05-07T06:33:19;101308.22;;;16.66;28.58
26192;BME280;13935;55.672;37.764;2023-05-07T06:34:24;101317.16;;;15.74;29.43
26192;BME280;13935;55.672;37.764;2023-05-07T06:35:27;101316.50;;;15.91;29.21
26192;BME280;13935;55.672;37.764;2023-05-07T06:36:34;101311.13;;;16.19;29.56
26192;BME280;13935;55.672;37.764;2023-05-07T06:37:45;101314.09;;;16.43;28.33
26192;BME280;13935;55.672;37.764;2023-05-07T06:39:18;101317.34;;;17.72;27.43
26192;BME280;13935;55.672;37.764;2023-05-07T06:40:56;101307.72;;;18.36;26.49
26192;BME280;13935;55.672;37.764;2023-05-07T06:42:06;101308.22;;;19.16;25.45
26192;BME280;13935;55.672;37.764;2023-05-07T06:43:16;101308.53;;;18.08;26.74
26192;BME280;13935;55.672;37.764;2023-05-07T06:44:28;101310.94;;;18.34;25.36
26192;BME280;13935;55.672;37.764;2023-05-07T06:45:44;101315.81;;;19.80;24.35
26192;BME280;13935;55.672;37.764;2023-05-07T06:46:51;101314.94;;;17.91;24.55
26192;BME280;13935;55.672;37.764;2023-05-07T06:48:01;101317.56;;;17.05;26.26
26192;BME280;13935;55.672;37.764;2023-05-07T06:51:28;101310.56;;;16.50;27.35
26192;BME280;13935;55.672;37.764;2023-05-07T06:53:22;101316.13;;;18.08;26.20
26192;BME280;13935;55.672;37.764;2023-05-07T06:56:47;101312.47;;;18.53;25.77
26192;BME280;13935;55.672;37.764;2023-05-07T06:57:57;101321.00;;;19.24;25.03
26192;BME280;13935;55.672;37.764;2023-05-07T06:59:31;101316.53;;;17.92;24.94
26192;BME280;13935;55.672;37.764;2023-05-07T07:00:40;101314.75;;;16.23;26.62
26192;BME280;13935;55.672;37.764;2023-05-07T07:02:32;101300.72;;;15.23;27.98
26192;BME280;13935;55.672;37.764;2023-05-07T07:03:37;101309.75;;;15.46;28.85
26192;BME280;13935;55.672;37.764;2023-05-07T07:04:49;101310.03;;;15.01;29.19
26192;BME280;13935;55.672;37.764;2023-05-07T07:05:54;101298.97;;;15.08;29.16
26192;BME280;13935;55.672;37.764;2023-05-07T07:07:05;101303.31;;;15.42;29.72
26192;BME280;13935;55.672;37.764;2023-05-07T07:08:09;101299.56;;;13.81;30.12
26192;BME280;13935;55.672;37.764;2023-05-07T07:09:12;101295.03;;;14.80;29.56
26192;BME280;13935;55.672;37.764;2023-05-07T07:10:15;101298.69;;;13.99;29.02
26192;BME280;13935;55.672;37.764;2023-05-07T07:11:20;101301.88;;;13.75;29.91
26192;BME280;13935;55.672;37.764;2023-05-07T07:16:08;101300.84;;;13.61;30.86
26192;BME280;13935;55.672;37.764;2023-05-07T07:21:50;101301.34;;;18.25;26.16
26192;BME280;13935;55.672;37.764;2023-05-07T07:22:53;101307.34;;;18.06;25.75
26192;BME280;13935;55.672;37.764;2023-05-07T07:23:55;101302.16;;;17.94;25.75
26192;BME280;13935;55.672;37.764;2023-05-07T07:24:59;101312.19;;;16.54;26.54
26192;BME280;13935;55.672;37.764;2023-05-07T07:26:03;101307.59;;;17.11;26.00
26192;BME280;13935;55.672;37.764;2023-05-07T07:27:08;101306.66;;;15.58;26.55
26192;BME280;13935;55.672;37.764;2023-05-07T07:28:10;101310.81;;;15.01;26.64
26192;BME280;13935;55.672;37.764;2023-05-07T07:29:13;101314.69;;;16.16;26.52
26192;BME280;13935;55.672;37.764;2023-05-07T07:30:17;101311.28;;;16.37;25.05
26192;BME280;13935;55.672;37.764;2023-05-07T07:31:22;101317.34;;;17.55;24.99
26192;BME280;13935;55.672;37.764;2023-05-07T07:32:25;101310.06;;;18.48;23.35
26192;BME280;13935;55.672;37.764;2023-05-07T07:33:28;101304.47;;;18.48;23.25
26192;BME280;13935;55.672;37.764;2023-05-07T07:34:31;101308.78;;;18.76;22.93
26192;BME280;13935;55.672;37.764;2023-05-07T07:35:35;101302.47;;;19.40;22.40
26192;BME280;13935;55.672;37.764;2023-05-07T07:36:42;101305.53;;;20.10;22.51
26192;BME280;13935;55.672;37.764;2023-05-07T07:37:50;101305.22;;;18.59;23.31
26192;BME280;13935;55.672;37.764;2023-05-07T07:38:53;101305.84;;;19.04;22.68
26192;BME280;13935;55.672;37.764;2023-05-07T07:39:55;101301.84;;;19.05;24.14
26192;BME280;13935;55.672;37.764;2023-05-07T07:40:57;101300.19;;;19.18;24.06
26192;BME280;13935;55.672;37.764;2023-05-07T07:42:00;101297.34;;;17.84;24.29
26192;BME280;13935;55.672;37.764;2023-05-07T07:43:04;101303.38;;;16.52;25.07
26192;BME280;13935;55.672;37.764;2023-05-07T07:44:07;101296.22;;;15.11;27.07
26192;BME280;13935;55.672;37.764;2023-05-07T07:45:11;101301.06;;;13.75;28.48
26192;BME280;13935;55.672;37.764;2023-05-07T07:46:18;101303.31;;;13.66;29.46
26192;BME280;13935;55.672;37.764;2023-05-07T07:47:45;101298.13;;;13.90;29.27
26192;BME280;13935;55.672;37.764;2023-05-07T07:48:48;101299.41;;;13.26;29.52
26192;BME280;13935;55.672;37.764;2023-05-07T07:59:36;101294.81;;;12.20;29.74
26192;BME280;13935;55.672;37.764;2023-05-07T08:00:40;101295.78;;;11.93;31.13
26192;BME280;13935;55.672;37.764;2023-05-07T08:05:38;101299.72;;;13.43;29.58
26192;BME280;13935;55.672;37.764;2023-05-07T08:10:37;101291.63;;;13.35;28.71
26192;BME280;13935;55.672;37.764;2023-05-07T08:15:43;101291.34;;;12.98;28.44
